createdAt,value
2018-01-25T12:05:13.839Z,1005.54
2018-01-25T12:06:13.831Z,1005.54
2018-01-25T12:07:13.822Z,1005.47
2018-01-25T12:08:13.819Z,1005.47
2018-01-25T12:09:13.816Z,1005.42
2018-01-25T12:10:13.818Z,1005.42
2018-01-25T12:11:13.811Z,1005.43
2018-01-25T12:12:13.799Z,1005.41
2018-01-25T12:13:13.801Z,1005.43
2018-01-25T12:14:13.796Z,1005.40
2018-01-25T12:15:13.793Z,1005.44
2018-01-25T12:16:13.790Z,1005.49
2018-01-25T12:17:13.805Z,1005.53
2018-01-25T12:18:13.779Z,1005.51
2018-01-25T12:19:13.781Z,1005.50
2018-01-25T12:20:13.777Z,1005.55
2018-01-25T12:21:13.775Z,1005.57
2018-01-25T12:22:13.765Z,1005.58
2018-01-25T12:23:13.762Z,1005.58
2018-01-25T12:24:13.767Z,1005.63
2018-01-25T12:25:13.758Z,1005.64
2018-01-25T12:26:13.757Z,1005.60
2018-01-25T12:27:13.753Z,1005.61
2018-01-25T12:28:13.748Z,1005.60
2018-01-25T12:29:13.741Z,1005.62
2018-01-25T12:30:13.741Z,1005.59
2018-01-25T12:31:13.740Z,1005.52
2018-01-25T12:32:13.733Z,1005.56
2018-01-25T12:33:13.734Z,1005.51
2018-01-25T12:34:13.724Z,1005.48
2018-01-25T12:35:13.724Z,1005.41
2018-01-25T12:36:13.724Z,1005.41
2018-01-25T12:37:13.717Z,1005.47
2018-01-25T12:38:13.706Z,1005.46
2018-01-25T12:39:13.702Z,1005.38
2018-01-25T12:40:13.733Z,1005.41
2018-01-25T12:41:13.798Z,1005.41
2018-01-25T12:42:13.697Z,1005.40
2018-01-25T12:43:13.698Z,1005.42
2018-01-25T12:44:13.690Z,1005.40
2018-01-25T12:45:13.680Z,1005.40
2018-01-25T12:46:13.681Z,1005.42
2018-01-25T12:47:13.676Z,1005.36
2018-01-25T12:48:13.676Z,1005.34
2018-01-25T12:49:13.685Z,1005.35
2018-01-25T12:50:13.663Z,1005.28
2018-01-25T12:51:13.665Z,1005.27
2018-01-25T12:52:13.663Z,1005.26
2018-01-25T12:53:13.656Z,1005.23
2018-01-25T12:54:13.650Z,1005.25
2018-01-25T12:55:13.653Z,1005.21
2018-01-25T12:56:13.640Z,1005.25
2018-01-25T12:57:13.644Z,1005.20
2018-01-25T12:58:13.694Z,1005.18
2018-01-25T12:59:13.635Z,1005.18
2018-01-25T13:00:13.629Z,1005.24
2018-01-25T13:01:13.624Z,1005.16
2018-01-25T13:02:13.627Z,1005.17
2018-01-25T13:03:13.758Z,1005.19
2018-01-25T13:04:13.617Z,1005.14
2018-01-25T13:05:13.613Z,1005.12
2018-01-25T13:06:13.606Z,1005.17
2018-01-25T13:07:13.602Z,1005.19
2018-01-25T13:08:13.607Z,1005.13
2018-01-25T13:09:13.600Z,1005.14
2018-01-25T13:10:13.594Z,1005.22
2018-01-25T13:11:13.588Z,1005.11
2018-01-25T13:12:13.583Z,1005.11
2018-01-25T13:13:13.578Z,1005.08
2018-01-25T13:14:13.578Z,1005.10
2018-01-25T13:15:13.574Z,1005.10
2018-01-25T13:16:13.569Z,1005.13
2018-01-25T13:17:13.568Z,1005.11
2018-01-25T13:18:13.573Z,1005.14
2018-01-25T13:19:13.560Z,1005.12
2018-01-25T13:20:13.561Z,1005.11
2018-01-25T13:21:13.558Z,1005.10
2018-01-25T13:22:13.548Z,1005.11
2018-01-25T13:23:13.538Z,1005.08
2018-01-25T13:24:13.544Z,1005.07
2018-01-25T13:25:13.535Z,1005.03
2018-01-25T13:26:13.532Z,1005.07
2018-01-25T13:27:13.522Z,1005.02
2018-01-25T13:28:13.520Z,1005.00
2018-01-25T13:29:13.517Z,1004.99
2018-01-25T13:30:13.556Z,1005.03
2018-01-25T13:31:13.517Z,1004.96
2018-01-25T13:32:13.506Z,1004.93
2018-01-25T13:33:13.511Z,1004.88
2018-01-25T13:34:13.519Z,1004.89
2018-01-25T13:35:13.500Z,1004.83
2018-01-25T13:36:13.495Z,1004.87
2018-01-25T13:37:13.492Z,1004.89
2018-01-25T13:38:13.480Z,1004.82
2018-01-25T13:39:13.481Z,1004.84
2018-01-25T13:40:13.482Z,1004.84
2018-01-25T13:41:13.474Z,1004.81
2018-01-25T13:42:13.466Z,1004.79
2018-01-25T13:43:13.463Z,1004.78
2018-01-25T13:44:13.470Z,1004.74
2018-01-25T13:45:13.462Z,1004.72
2018-01-25T13:46:13.467Z,1004.70
2018-01-25T13:47:13.464Z,1004.70
2018-01-25T13:48:13.448Z,1004.66
2018-01-25T13:49:13.442Z,1004.67
2018-01-25T13:50:13.445Z,1004.66
2018-01-25T13:51:13.442Z,1004.70
2018-01-25T13:52:13.450Z,1004.67
2018-01-25T13:53:13.431Z,1004.64
2018-01-25T13:54:13.419Z,1004.65
2018-01-25T13:55:13.414Z,1004.60
2018-01-25T13:56:13.415Z,1004.62
2018-01-25T13:57:13.412Z,1004.61
2018-01-25T13:58:13.407Z,1004.59
2018-01-25T13:59:13.400Z,1004.61
2018-01-25T14:00:13.402Z,1004.60
2018-01-25T14:01:13.448Z,1004.69
2018-01-25T14:02:13.399Z,1004.68
2018-01-25T14:03:13.395Z,1004.73
2018-01-25T14:04:13.386Z,1004.71
2018-01-25T14:05:13.384Z,1004.76
2018-01-25T14:06:13.379Z,1004.79
2018-01-25T14:07:13.382Z,1004.79
2018-01-25T14:08:13.376Z,1004.76
2018-01-25T14:09:13.375Z,1004.74
2018-01-25T14:10:13.366Z,1004.73
2018-01-25T14:11:13.359Z,1004.74
2018-01-25T14:12:13.356Z,1004.70
2018-01-25T14:13:13.353Z,1004.71
2018-01-25T14:14:13.356Z,1004.65
2018-01-25T14:15:13.349Z,1004.71
2018-01-25T14:16:13.344Z,1004.71
2018-01-25T14:17:13.340Z,1004.75
2018-01-25T14:18:13.332Z,1004.73
2018-01-25T14:19:13.330Z,1004.70
2018-01-25T14:20:13.378Z,1004.70
2018-01-25T14:21:13.326Z,1004.76
2018-01-25T14:22:13.418Z,1004.76
2018-01-25T14:23:13.321Z,1004.76
2018-01-25T14:24:13.311Z,1004.72
2018-01-25T14:25:13.312Z,1004.73
2018-01-25T14:26:13.308Z,1004.74
2018-01-25T14:27:13.305Z,1004.74
2018-01-25T14:28:13.298Z,1004.73
2018-01-25T14:29:13.313Z,1004.70
2018-01-25T14:30:13.294Z,1004.75
2018-01-25T14:31:13.290Z,1004.74
2018-01-25T14:32:13.291Z,1004.72
2018-01-25T14:33:13.286Z,1004.77
2018-01-25T14:34:13.277Z,1004.78
2018-01-25T14:35:13.275Z,1004.78
2018-01-25T14:36:13.282Z,1004.78
2018-01-25T14:37:13.268Z,1004.77
2018-01-25T14:38:13.264Z,1004.76
2018-01-25T14:39:13.262Z,1004.69
2018-01-25T14:40:13.257Z,1004.74
2018-01-25T14:41:13.254Z,1004.76
2018-01-25T14:42:13.256Z,1004.82
2018-01-25T14:43:13.248Z,1004.85
2018-01-25T14:44:13.241Z,1004.86
2018-01-25T14:45:13.291Z,1004.81
2018-01-25T14:46:13.238Z,1004.83
2018-01-25T14:47:13.233Z,1004.83
2018-01-25T14:48:13.228Z,1004.85
2018-01-25T14:49:13.223Z,1004.81
2018-01-25T14:50:13.222Z,1004.84
2018-01-25T14:51:13.212Z,1004.86
2018-01-25T14:52:13.214Z,1004.86
2018-01-25T14:53:13.210Z,1004.86
2018-01-25T14:54:13.204Z,1004.83
2018-01-25T14:55:13.200Z,1004.77
2018-01-25T14:56:13.199Z,1004.76
2018-01-25T14:57:13.189Z,1004.79
2018-01-25T14:58:13.214Z,1004.74
2018-01-25T14:59:13.185Z,1004.75
2018-01-25T15:00:13.183Z,1004.78
2018-01-25T15:01:13.176Z,1004.74
2018-01-25T15:02:13.180Z,1004.79
2018-01-25T15:03:13.170Z,1004.74
2018-01-25T15:04:13.169Z,1004.74
2018-01-25T15:05:13.168Z,1004.76
2018-01-25T15:06:13.155Z,1004.78
2018-01-25T15:07:13.153Z,1004.81
2018-01-25T15:08:13.167Z,1004.84
2018-01-25T15:09:13.150Z,1004.89
2018-01-25T15:10:13.220Z,1004.91
2018-01-25T15:11:13.139Z,1004.94
2018-01-25T15:12:13.134Z,1004.93
2018-01-25T15:13:13.133Z,1004.96
2018-01-25T15:14:13.137Z,1004.98
2018-01-25T15:15:13.130Z,1005.04
2018-01-25T15:16:13.149Z,1005.07
2018-01-25T15:17:13.112Z,1005.10
2018-01-25T15:18:13.113Z,1005.12
2018-01-25T15:19:13.113Z,1005.06
2018-01-25T15:20:13.259Z,1005.06
2018-01-25T15:21:13.103Z,1005.03
2018-01-25T15:22:13.098Z,1005.08
2018-01-25T15:23:13.101Z,1005.05
2018-01-25T15:24:13.095Z,1005.09
2018-01-25T15:25:13.089Z,1005.11
2018-01-25T15:26:13.078Z,1005.06
2018-01-25T15:27:13.078Z,1005.03
2018-01-25T15:28:13.072Z,1004.95
2018-01-25T15:29:13.067Z,1004.88
2018-01-25T15:30:13.071Z,1004.94
2018-01-25T15:31:13.069Z,1004.87
2018-01-25T15:32:13.356Z,1004.87
2018-01-25T15:33:13.055Z,1004.90
2018-01-25T15:34:13.051Z,1004.90
2018-01-25T15:35:13.050Z,1004.90
2018-01-25T15:36:13.041Z,1004.87
2018-01-25T15:37:13.040Z,1004.86
2018-01-25T15:38:13.028Z,1004.87
2018-01-25T15:39:13.029Z,1004.82
2018-01-25T15:40:13.031Z,1004.82
2018-01-25T15:41:13.030Z,1004.82
2018-01-25T15:42:13.017Z,1004.77
2018-01-25T15:43:13.316Z,1004.78
2018-01-25T15:44:13.012Z,1004.73
2018-01-25T15:45:13.001Z,1004.75
2018-01-25T15:46:13.008Z,1004.75
2018-01-25T15:47:13.003Z,1004.83
2018-01-25T15:48:12.991Z,1004.83
2018-01-25T15:49:12.992Z,1004.84
2018-01-25T15:50:12.992Z,1004.83
2018-01-25T15:51:12.986Z,1004.82
2018-01-25T15:52:12.983Z,1004.81
2018-01-25T15:53:12.980Z,1004.81
2018-01-25T15:54:12.975Z,1004.81
2018-01-25T15:55:13.019Z,1004.79
2018-01-25T15:56:12.966Z,1004.74
2018-01-25T15:57:12.962Z,1004.73
2018-01-25T15:58:12.955Z,1004.77
2018-01-25T15:59:12.952Z,1004.81
2018-01-25T16:00:12.950Z,1004.79
2018-01-25T16:01:12.947Z,1004.80
2018-01-25T16:02:12.953Z,1004.79
2018-01-25T16:03:12.944Z,1004.78
2018-01-25T16:04:12.936Z,1004.82
2018-01-25T16:05:12.931Z,1004.89
2018-01-25T16:06:12.933Z,1004.91
2018-01-25T16:07:12.929Z,1004.91
2018-01-25T16:08:12.927Z,1004.87
2018-01-25T16:09:12.925Z,1004.85
2018-01-25T16:10:12.911Z,1004.89
2018-01-25T16:11:12.925Z,1004.92
2018-01-25T16:12:12.911Z,1004.97
2018-01-25T16:13:12.908Z,1004.99
2018-01-25T16:14:12.900Z,1004.98
2018-01-25T16:15:12.896Z,1004.99
2018-01-25T16:16:12.890Z,1005.00
2018-01-25T16:17:12.887Z,1004.97
2018-01-25T16:18:13.192Z,1004.94
2018-01-25T16:19:12.890Z,1004.94
2018-01-25T16:20:12.879Z,1004.91
2018-01-25T16:21:12.877Z,1004.93
2018-01-25T16:22:12.869Z,1004.92
2018-01-25T16:23:12.871Z,1004.90
2018-01-25T16:24:12.865Z,1004.92
2018-01-25T16:25:12.859Z,1004.94
2018-01-25T16:26:12.860Z,1004.95
2018-01-25T16:27:12.867Z,1004.90
2018-01-25T16:28:12.847Z,1004.90
2018-01-25T16:29:12.858Z,1004.89
2018-01-25T16:30:12.842Z,1004.91
2018-01-25T16:31:12.839Z,1004.90
2018-01-25T16:32:12.838Z,1004.89
2018-01-25T16:33:12.834Z,1004.86
2018-01-25T16:34:12.827Z,1004.91
2018-01-25T16:35:13.123Z,1004.90
2018-01-25T16:36:12.824Z,1004.92
2018-01-25T16:37:12.822Z,1004.94
2018-01-25T16:38:12.810Z,1004.93
2018-01-25T16:39:12.810Z,1004.90
2018-01-25T16:40:12.799Z,1004.89
2018-01-25T16:41:13.096Z,1004.95
2018-01-25T16:42:12.802Z,1004.98
2018-01-25T16:43:12.791Z,1004.97
2018-01-25T16:44:12.785Z,1004.96
2018-01-25T16:45:12.781Z,1004.92
2018-01-25T16:46:12.801Z,1004.98
2018-01-25T16:47:12.776Z,1004.97
2018-01-25T16:48:12.813Z,1004.93
2018-01-25T16:49:12.767Z,1004.95
2018-01-25T16:50:12.759Z,1004.93
2018-01-25T16:51:12.753Z,1004.90
2018-01-25T16:52:12.759Z,1004.91
2018-01-25T16:53:12.750Z,1004.85
2018-01-25T16:54:12.745Z,1004.85
2018-01-25T16:55:12.743Z,1004.84
2018-01-25T16:56:12.736Z,1004.87
2018-01-25T16:57:12.732Z,1004.86
2018-01-25T16:58:12.733Z,1004.84
2018-01-25T16:59:12.733Z,1004.86
2018-01-25T17:00:12.729Z,1004.88
2018-01-25T17:01:12.729Z,1004.86
2018-01-25T17:02:12.755Z,1004.85
2018-01-25T17:03:12.715Z,1004.79
2018-01-25T17:04:12.707Z,1004.83
2018-01-25T17:05:12.703Z,1004.81
2018-01-25T17:06:12.698Z,1004.83
2018-01-25T17:07:12.693Z,1004.82
2018-01-25T17:08:12.695Z,1004.82
2018-01-25T17:09:12.687Z,1004.86
2018-01-25T17:10:12.681Z,1004.83
2018-01-25T17:11:12.684Z,1004.82
2018-01-25T17:12:12.678Z,1004.83
2018-01-25T17:13:12.685Z,1004.84
2018-01-25T17:14:12.664Z,1004.84
2018-01-25T17:15:12.659Z,1004.84
2018-01-25T17:16:12.654Z,1004.86
2018-01-25T17:17:12.650Z,1004.85
2018-01-25T17:18:12.656Z,1004.87
2018-01-25T17:19:12.646Z,1004.87
2018-01-25T17:20:12.640Z,1004.84
2018-01-25T17:21:12.642Z,1004.83
2018-01-25T17:22:12.626Z,1004.83
2018-01-25T17:23:12.622Z,1004.85
2018-01-25T17:24:12.627Z,1004.90
2018-01-25T17:25:12.619Z,1004.85
2018-01-25T17:26:12.612Z,1004.88
2018-01-25T17:27:12.611Z,1004.88
2018-01-25T17:28:12.603Z,1004.93
2018-01-25T17:29:12.597Z,1004.89
2018-01-25T17:30:12.596Z,1004.94
2018-01-25T17:31:12.592Z,1004.99
2018-01-25T17:32:12.587Z,1004.99
2018-01-25T17:33:12.583Z,1004.96
2018-01-25T17:34:12.586Z,1004.93
2018-01-25T17:35:12.581Z,1004.93
2018-01-25T17:36:12.571Z,1004.92
2018-01-25T17:37:12.574Z,1004.97
2018-01-25T17:38:12.559Z,1004.99
2018-01-25T17:39:12.562Z,1005.01
2018-01-25T17:40:12.556Z,1005.00
2018-01-25T17:41:12.557Z,1004.96
2018-01-25T17:42:12.542Z,1004.97
2018-01-25T17:43:12.597Z,1004.96
2018-01-25T17:44:12.540Z,1004.96
2018-01-25T17:45:12.533Z,1004.95
2018-01-25T17:46:12.536Z,1005.00
2018-01-25T17:47:12.530Z,1005.05
2018-01-25T17:48:12.517Z,1005.04
2018-01-25T17:49:12.517Z,1004.97
2018-01-25T17:50:12.518Z,1005.02
2018-01-25T17:51:12.516Z,1004.98
2018-01-25T17:52:12.510Z,1005.02
2018-01-25T17:53:12.503Z,1005.00
2018-01-25T17:54:12.499Z,1005.01
2018-01-25T17:55:12.492Z,1005.00
2018-01-25T17:56:12.492Z,1004.99
2018-01-25T17:57:12.491Z,1005.01
2018-01-25T17:58:12.482Z,1005.00
2018-01-25T17:59:12.476Z,1004.99
2018-01-25T18:00:12.470Z,1005.01
2018-01-25T18:01:12.465Z,1005.05
2018-01-25T18:02:12.473Z,1005.04
2018-01-25T18:03:12.466Z,1005.08
2018-01-25T18:04:12.459Z,1005.09
2018-01-25T18:05:12.455Z,1005.10
2018-01-25T18:06:12.455Z,1005.12
2018-01-25T18:07:12.452Z,1005.10
2018-01-25T18:08:12.444Z,1005.09
2018-01-25T18:09:12.438Z,1005.10
2018-01-25T18:10:12.431Z,1005.09
2018-01-25T18:11:12.427Z,1005.10
2018-01-25T18:12:12.435Z,1005.19
2018-01-25T18:13:12.424Z,1005.16
2018-01-25T18:14:12.416Z,1005.21
2018-01-25T18:15:12.466Z,1005.22
2018-01-25T18:16:12.408Z,1005.17
2018-01-25T18:17:12.404Z,1005.17
2018-01-25T18:18:12.404Z,1005.12
2018-01-25T18:19:12.400Z,1005.12
2018-01-25T18:20:12.395Z,1005.16
2018-01-25T18:21:12.387Z,1005.12
2018-01-25T18:22:12.391Z,1005.13
2018-01-25T18:23:12.385Z,1005.09
2018-01-25T18:24:12.381Z,1005.10
2018-01-25T18:25:12.374Z,1005.07
2018-01-25T18:26:12.365Z,1005.11
2018-01-25T18:27:12.366Z,1005.07
2018-01-25T18:28:12.361Z,1005.11
2018-01-25T18:29:12.354Z,1005.17
2018-01-25T18:30:12.356Z,1005.17
2018-01-25T18:31:12.350Z,1005.22
2018-01-25T18:32:12.345Z,1005.23
2018-01-25T18:33:12.338Z,1005.23
2018-01-25T18:34:12.337Z,1005.23
2018-01-25T18:35:12.412Z,1005.23
2018-01-25T18:36:12.331Z,1005.31
2018-01-25T18:37:12.329Z,1005.28
2018-01-25T18:38:12.320Z,1005.28
2018-01-25T18:39:12.314Z,1005.30
2018-01-25T18:40:12.308Z,1005.30
2018-01-25T18:41:12.302Z,1005.31
2018-01-25T18:42:12.606Z,1005.36
2018-01-25T18:43:12.298Z,1005.35
2018-01-25T18:44:12.292Z,1005.36
2018-01-25T18:45:12.289Z,1005.34
2018-01-25T18:46:12.286Z,1005.37
2018-01-25T18:47:12.284Z,1005.40
2018-01-25T18:48:12.832Z,1005.38
2018-01-25T18:49:12.280Z,1005.39
2018-01-25T18:50:12.270Z,1005.41
2018-01-25T18:51:12.265Z,1005.42
2018-01-25T18:52:12.262Z,1005.45
2018-01-25T18:53:12.257Z,1005.42
2018-01-25T18:54:12.550Z,1005.39
2018-01-25T18:55:12.245Z,1005.44
2018-01-25T18:56:12.243Z,1005.42
2018-01-25T18:57:12.246Z,1005.39
2018-01-25T18:58:12.240Z,1005.42
2018-01-25T18:59:12.238Z,1005.44
2018-01-25T19:00:12.227Z,1005.46
2018-01-25T19:01:12.223Z,1005.45
2018-01-25T19:02:12.221Z,1005.42
2018-01-25T19:03:12.218Z,1005.47
2018-01-25T19:04:12.216Z,1005.46
2018-01-25T19:05:12.557Z,1005.52
2018-01-25T19:06:12.199Z,1005.52
2018-01-25T19:07:12.267Z,1005.51
2018-01-25T19:08:12.198Z,1005.53
2018-01-25T19:09:12.191Z,1005.53
2018-01-25T19:10:12.184Z,1005.54
2018-01-25T19:11:12.480Z,1005.50
2018-01-25T19:12:12.172Z,1005.48
2018-01-25T19:13:12.168Z,1005.50
2018-01-25T19:14:12.167Z,1005.51
2018-01-25T19:15:12.162Z,1005.51
2018-01-25T19:16:12.154Z,1005.53
2018-01-25T19:17:12.449Z,1005.52
2018-01-25T19:18:12.153Z,1005.51
2018-01-25T19:19:12.145Z,1005.55
2018-01-25T19:20:12.146Z,1005.56
2018-01-25T19:21:12.136Z,1005.57
2018-01-25T19:22:12.133Z,1005.58
2018-01-25T19:23:12.426Z,1005.57
2018-01-25T19:24:12.126Z,1005.58
2018-01-25T19:25:12.118Z,1005.59
2018-01-25T19:26:12.112Z,1005.56
2018-01-25T19:27:12.104Z,1005.64
2018-01-25T19:28:12.105Z,1005.63
2018-01-25T19:29:12.097Z,1005.64
2018-01-25T19:30:12.101Z,1005.61
2018-01-25T19:31:12.092Z,1005.63
2018-01-25T19:32:12.092Z,1005.64
2018-01-25T19:33:12.084Z,1005.64
2018-01-25T19:34:12.080Z,1005.62
2018-01-25T19:35:12.070Z,1005.62
2018-01-25T19:36:12.069Z,1005.61
2018-01-25T19:37:12.065Z,1005.63
2018-01-25T19:38:12.064Z,1005.61
2018-01-25T19:39:12.051Z,1005.56
2018-01-25T19:40:12.136Z,1005.62
2018-01-25T19:41:12.042Z,1005.66
2018-01-25T19:42:12.036Z,1005.66
2018-01-25T19:43:12.031Z,1005.61
2018-01-25T19:44:12.026Z,1005.62
2018-01-25T19:45:12.019Z,1005.66
2018-01-25T19:46:12.027Z,1005.63
2018-01-25T19:47:12.015Z,1005.65
2018-01-25T19:48:12.009Z,1005.67
2018-01-25T19:49:12.001Z,1005.64
2018-01-25T19:50:11.998Z,1005.61
2018-01-25T19:51:11.995Z,1005.60
2018-01-25T19:52:11.987Z,1005.59
2018-01-25T19:53:11.981Z,1005.56
2018-01-25T19:54:11.976Z,1005.57
2018-01-25T19:55:11.972Z,1005.52
2018-01-25T19:56:11.968Z,1005.54
2018-01-25T19:57:11.968Z,1005.55
2018-01-25T19:58:11.957Z,1005.52
2018-01-25T19:59:11.949Z,1005.49
2018-01-25T20:00:11.942Z,1005.50
2018-01-25T20:01:11.941Z,1005.55
2018-01-25T20:02:11.939Z,1005.52
2018-01-25T20:03:11.931Z,1005.55
2018-01-25T20:04:11.927Z,1005.53
2018-01-25T20:05:11.934Z,1005.52
2018-01-25T20:06:11.914Z,1005.53
2018-01-25T20:07:11.912Z,1005.54
2018-01-25T20:08:11.906Z,1005.48
2018-01-25T20:09:11.898Z,1005.52
2018-01-25T20:10:11.890Z,1005.53
2018-01-25T20:11:11.883Z,1005.51
2018-01-25T20:12:11.886Z,1005.47
2018-01-25T20:13:11.879Z,1005.54
2018-01-25T20:14:11.882Z,1005.50
2018-01-25T20:15:11.860Z,1005.49
2018-01-25T20:16:11.855Z,1005.47
2018-01-25T20:17:11.852Z,1005.48
2018-01-25T20:18:11.851Z,1005.48
2018-01-25T20:19:11.844Z,1005.50
2018-01-25T20:20:11.832Z,1005.53
2018-01-25T20:21:11.825Z,1005.55
2018-01-25T20:22:11.828Z,1005.57
2018-01-25T20:23:11.818Z,1005.62
2018-01-25T20:24:11.812Z,1005.64
2018-01-25T20:25:11.808Z,1005.66
2018-01-25T20:26:11.800Z,1005.65
2018-01-25T20:27:11.793Z,1005.60
2018-01-25T20:28:11.803Z,1005.69
2018-01-25T20:29:11.787Z,1005.65
2018-01-25T20:30:11.774Z,1005.69
2018-01-25T20:31:11.768Z,1005.67
2018-01-25T20:32:11.759Z,1005.63
2018-01-25T20:33:11.753Z,1005.66
2018-01-25T20:34:11.751Z,1005.71
2018-01-25T20:35:11.746Z,1005.68
2018-01-25T20:36:11.738Z,1005.72
2018-01-25T20:37:11.735Z,1005.72
2018-01-25T20:38:11.732Z,1005.68
2018-01-25T20:39:11.725Z,1005.64
2018-01-25T20:40:11.718Z,1005.66
2018-01-25T20:41:11.713Z,1005.64
2018-01-25T20:42:11.701Z,1005.65
2018-01-25T20:43:11.699Z,1005.64
2018-01-25T20:44:11.696Z,1005.64
2018-01-25T20:45:11.692Z,1005.65
2018-01-25T20:46:11.679Z,1005.72
2018-01-25T20:47:11.677Z,1005.67
2018-01-25T20:48:11.666Z,1005.76
2018-01-25T20:49:11.762Z,1005.82
2018-01-25T20:50:11.664Z,1005.82
2018-01-25T20:51:11.655Z,1005.85
2018-01-25T20:52:11.642Z,1005.85
2018-01-25T20:53:11.642Z,1005.83
2018-01-25T20:54:11.639Z,1005.81
2018-01-25T20:55:11.628Z,1005.76
2018-01-25T20:56:11.626Z,1005.79
2018-01-25T20:57:11.619Z,1005.81
2018-01-25T20:58:11.609Z,1005.83
2018-01-25T20:59:11.605Z,1005.86
2018-01-25T21:00:11.604Z,1005.81
2018-01-25T21:01:11.594Z,1005.83
2018-01-25T21:02:11.588Z,1005.80
2018-01-25T21:03:11.580Z,1005.80
2018-01-25T21:04:11.574Z,1005.77
2018-01-25T21:05:11.566Z,1005.73
2018-01-25T21:06:11.566Z,1005.78
2018-01-25T21:07:11.559Z,1005.80
2018-01-25T21:08:11.552Z,1005.83
2018-01-25T21:09:11.541Z,1005.89
2018-01-25T21:10:11.542Z,1005.82
2018-01-25T21:11:11.536Z,1005.85
2018-01-25T21:12:11.531Z,1005.84
2018-01-25T21:13:11.526Z,1005.85
2018-01-25T21:14:11.557Z,1005.83
2018-01-25T21:15:11.509Z,1005.84
2018-01-25T21:16:11.510Z,1005.83
2018-01-25T21:17:11.498Z,1005.85
2018-01-25T21:18:11.494Z,1005.85
2018-01-25T21:19:11.484Z,1005.79
2018-01-25T21:20:11.479Z,1005.74
2018-01-25T21:21:11.470Z,1005.75
2018-01-25T21:22:11.468Z,1005.76
2018-01-25T21:23:11.467Z,1005.77
2018-01-25T21:24:11.451Z,1005.79
2018-01-25T21:25:11.466Z,1005.85
2018-01-25T21:26:11.448Z,1005.90
2018-01-25T21:27:11.438Z,1005.91
2018-01-25T21:28:11.435Z,1005.89
2018-01-25T21:29:11.429Z,1005.91
2018-01-25T21:30:11.668Z,1005.86
2018-01-25T21:31:11.413Z,1005.85
2018-01-25T21:32:11.410Z,1005.89
2018-01-25T21:33:11.402Z,1005.95
2018-01-25T21:34:11.396Z,1005.99
2018-01-25T21:35:11.393Z,1006.02
2018-01-25T21:36:11.385Z,1006.04
2018-01-25T21:37:11.378Z,1006.05
2018-01-25T21:38:11.377Z,1006.06
2018-01-25T21:39:11.371Z,1006.12
2018-01-25T21:40:11.362Z,1006.13
2018-01-25T21:41:11.359Z,1006.14
2018-01-25T21:42:11.355Z,1006.19
2018-01-25T21:43:11.352Z,1006.22
2018-01-25T21:44:11.359Z,1006.25
2018-01-25T21:45:11.335Z,1006.26
2018-01-25T21:46:11.330Z,1006.22
2018-01-25T21:47:11.320Z,1006.22
2018-01-25T21:48:11.315Z,1006.18
2018-01-25T21:49:11.316Z,1006.17
2018-01-25T21:50:11.304Z,1006.11
2018-01-25T21:51:11.294Z,1006.15
2018-01-25T21:52:11.300Z,1006.12
2018-01-25T21:53:11.286Z,1006.12
2018-01-25T21:54:11.282Z,1006.09
2018-01-25T21:55:11.278Z,1006.10
2018-01-25T21:56:11.268Z,1006.06
2018-01-25T21:57:11.263Z,1006.04
2018-01-25T21:58:11.261Z,1006.07
2018-01-25T21:59:11.256Z,1006.09
2018-01-25T22:00:11.248Z,1006.07
2018-01-25T22:01:11.246Z,1006.09
2018-01-25T22:02:11.232Z,1006.05
2018-01-25T22:03:11.230Z,1006.04
2018-01-25T22:04:11.229Z,1006.08
2018-01-25T22:05:11.223Z,1006.08
2018-01-25T22:06:11.214Z,1006.08
2018-01-25T22:07:11.204Z,1006.08
2018-01-25T22:08:11.213Z,1006.07
2018-01-25T22:09:11.191Z,1006.09
2018-01-25T22:10:11.188Z,1006.07
2018-01-25T22:11:11.184Z,1006.11
2018-01-25T22:12:11.173Z,1006.12
2018-01-25T22:13:11.170Z,1006.10
2018-01-25T22:14:11.171Z,1006.12
2018-01-25T22:15:11.161Z,1006.11
2018-01-25T22:16:11.171Z,1006.09
2018-01-25T22:17:11.154Z,1006.12
2018-01-25T22:18:11.140Z,1006.12
2018-01-25T22:19:11.135Z,1006.15
2018-01-25T22:20:11.138Z,1006.12
2018-01-25T22:21:11.132Z,1006.13
2018-01-25T22:22:11.115Z,1006.14
2018-01-25T22:23:11.111Z,1006.15
2018-01-25T22:24:11.124Z,1006.16
2018-01-25T22:25:11.100Z,1006.18
2018-01-25T22:26:11.099Z,1006.23
2018-01-25T22:27:11.095Z,1006.23
2018-01-25T22:28:11.088Z,1006.19
2018-01-25T22:29:11.082Z,1006.19
2018-01-25T22:30:11.084Z,1006.25
2018-01-25T22:31:11.086Z,1006.20
2018-01-25T22:32:11.081Z,1006.22
2018-01-25T22:33:11.061Z,1006.23
2018-01-25T22:34:11.049Z,1006.22
2018-01-25T22:35:11.041Z,1006.23
2018-01-25T22:36:11.043Z,1006.23
2018-01-25T22:37:11.038Z,1006.19
2018-01-25T22:38:11.033Z,1006.21
2018-01-25T22:39:11.033Z,1006.15
2018-01-25T22:40:11.036Z,1006.16
2018-01-25T22:41:11.011Z,1006.14
2018-01-25T22:42:11.022Z,1006.11
2018-01-25T22:43:11.004Z,1006.11
2018-01-25T22:44:10.996Z,1006.13
2018-01-25T22:45:10.994Z,1006.18
2018-01-25T22:46:10.981Z,1006.16
2018-01-25T22:47:10.975Z,1006.19
2018-01-25T22:48:10.995Z,1006.18
2018-01-25T22:49:10.969Z,1006.17
2018-01-25T22:50:10.963Z,1006.11
2018-01-25T22:51:11.062Z,1006.14
2018-01-25T22:52:10.952Z,1006.17
2018-01-25T22:53:10.939Z,1006.17
2018-01-25T22:54:10.941Z,1006.13
2018-01-25T22:55:10.937Z,1006.17
2018-01-25T22:56:10.943Z,1006.16
2018-01-25T22:57:10.935Z,1006.14
2018-01-25T22:58:10.920Z,1006.15
2018-01-25T22:59:10.910Z,1006.13
2018-01-25T23:00:10.909Z,1006.17
2018-01-25T23:01:10.902Z,1006.16
2018-01-25T23:02:10.895Z,1006.14
2018-01-25T23:03:10.887Z,1006.17
2018-01-25T23:04:10.892Z,1006.19
2018-01-25T23:05:10.873Z,1006.15
2018-01-25T23:06:10.883Z,1006.17
2018-01-25T23:07:10.866Z,1006.20
2018-01-25T23:08:10.960Z,1006.24
2018-01-25T23:09:10.854Z,1006.21
2018-01-25T23:10:10.851Z,1006.25
2018-01-25T23:11:10.845Z,1006.22
2018-01-25T23:12:10.856Z,1006.23
2018-01-25T23:13:10.836Z,1006.20
2018-01-25T23:14:10.822Z,1006.20
2018-01-25T23:15:10.817Z,1006.18
2018-01-25T23:16:10.817Z,1006.18
2018-01-25T23:17:10.816Z,1006.19
2018-01-25T23:18:10.801Z,1006.20
2018-01-25T23:19:10.796Z,1006.23
2018-01-25T23:20:10.890Z,1006.26
2018-01-25T23:21:10.786Z,1006.26
2018-01-25T23:22:10.785Z,1006.28
2018-01-25T23:23:10.781Z,1006.28
2018-01-25T23:24:10.768Z,1006.31
2018-01-25T23:25:10.769Z,1006.34
2018-01-25T23:26:10.767Z,1006.32
2018-01-25T23:27:10.756Z,1006.32
2018-01-25T23:28:10.768Z,1006.34
2018-01-25T23:29:10.743Z,1006.33
2018-01-25T23:30:10.737Z,1006.36
2018-01-25T23:31:10.730Z,1006.37
2018-01-25T23:32:10.728Z,1006.35
2018-01-25T23:33:10.720Z,1006.37
2018-01-25T23:34:10.715Z,1006.35
2018-01-25T23:35:10.709Z,1006.36
2018-01-25T23:36:10.871Z,1006.36
2018-01-25T23:37:10.693Z,1006.37
2018-01-25T23:38:10.691Z,1006.35
2018-01-25T23:39:10.692Z,1006.41
2018-01-25T23:40:10.677Z,1006.37
2018-01-25T23:41:10.673Z,1006.38
2018-01-25T23:42:10.672Z,1006.38
2018-01-25T23:43:10.666Z,1006.38
2018-01-25T23:44:10.668Z,1006.36
2018-01-25T23:45:10.656Z,1006.37
2018-01-25T23:46:10.641Z,1006.42
2018-01-25T23:47:10.636Z,1006.45
2018-01-25T23:48:10.639Z,1006.44
2018-01-25T23:49:10.629Z,1006.43
2018-01-25T23:50:10.619Z,1006.46
2018-01-25T23:51:10.616Z,1006.43
2018-01-25T23:52:10.873Z,1006.39
2018-01-25T23:53:10.606Z,1006.43
2018-01-25T23:54:10.603Z,1006.44
2018-01-25T23:55:10.593Z,1006.45
2018-01-25T23:56:10.590Z,1006.50
2018-01-25T23:57:10.581Z,1006.48
2018-01-25T23:58:10.578Z,1006.47
2018-01-25T23:59:10.575Z,1006.52
